sensor_id;sensor_type;location;lat;lon;timestamp;temperature;humidity
5246;DHT22;54412;51.206;6.888;2023-03-01T00:01:20;3.20;99.90
5246;DHT22;54412;51.206;6.888;2023-03-01T00:03:48;3.10;99.90
5246;DHT22;54412;51.206;6.888;2023-03-01T00:06:14;3.10;99.90
5246;DHT22;54412;51.206;6.888;2023-03-01T00:08:40;3.10;99.90
5246;DHT22;54412;51.206;6.888;2023-03-01T00:14:02;3.00;99.90
5246;DHT22;54412;51.206;6.888;2023-03-01T00:16:42;3.00;99.90
5246;DHT22;54412;51.206;6.888;2023-03-01T00:19:15;3.00;99.90
5246;DHT22;54412;51.206;6.888;2023-03-01T00:21:47;2.80;99.90
5246;DHT22;54412;51.206;6.888;2023-03-01T00:24:13;2.90;99.90
5246;DHT22;54412;51.206;6.888;2023-03-01T00:26:40;2.90;99.90
5246;DHT22;54412;51.206;6.888;2023-03-01T00:29:05;2.80;99.90
5246;DHT22;54412;51.206;6.888;2023-03-01T00:31:32;2.80;99.90
5246;DHT22;54412;51.206;6.888;2023-03-01T00:34:02;2.80;99.90
5246;DHT22;54412;51.206;6.888;2023-03-01T00:36:32;2.70;99.90
5246;DHT22;54412;51.206;6.888;2023-03-01T00:39:00;2.60;99.90
5246;DHT22;54412;51.206;6.888;2023-03-01T00:41:27;2.80;99.90
5246;DHT22;54412;51.206;6.888;2023-03-01T00:43:53;2.80;99.90
5246;DHT22;54412;51.206;6.888;2023-03-01T00:46:21;2.70;99.90
5246;DHT22;54412;51.206;6.888;2023-03-01T00:48:49;2.80;99.90
5246;DHT22;54412;51.206;6.888;2023-03-01T00:51:24;2.80;99.90
5246;DHT22;54412;51.206;6.888;2023-03-01T00:53:55;2.80;99.90
5246;DHT22;54412;51.206;6.888;2023-03-01T00:56:23;2.70;99.90
5246;DHT22;54412;51.206;6.888;2023-03-01T00:58:49;2.80;99.90
5246;DHT22;54412;51.206;6.888;2023-03-01T01:01:21;2.70;99.90
5246;DHT22;54412;51.206;6.888;2023-03-01T01:03:54;2.70;99.90
5246;DHT22;54412;51.206;6.888;2023-03-01T01:06:25;2.60;99.90
5246;DHT22;54412;51.206;6.888;2023-03-01T01:08:55;2.70;99.90
5246;DHT22;54412;51.206;6.888;2023-03-01T01:11:23;2.60;99.90
5246;DHT22;54412;51.206;6.888;2023-03-01T01:13:50;2.50;99.90
5246;DHT22;54412;51.206;6.888;2023-03-01T01:16:17;2.30;99.90
5246;DHT22;54412;51.206;6.888;2023-03-01T01:18:45;2.20;99.90
5246;DHT22;54412;51.206;6.888;2023-03-01T01:21:14;2.10;99.90
5246;DHT22;54412;51.206;6.888;2023-03-01T01:23:42;2.20;99.90
5246;DHT22;54412;51.206;6.888;2023-03-01T01:26:12;2.30;99.90
5246;DHT22;54412;51.206;6.888;2023-03-01T01:28:43;2.30;99.90
5246;DHT22;54412;51.206;6.888;2023-03-01T01:31:10;2.40;99.90
5246;DHT22;54412;51.206;6.888;2023-03-01T01:33:35;2.40;99.90
5246;DHT22;54412;51.206;6.888;2023-03-01T01:36:03;2.30;99.90
5246;DHT22;54412;51.206;6.888;2023-03-01T01:38:33;2.50;99.90
5246;DHT22;54412;51.206;6.888;2023-03-01T01:40:59;2.50;99.90
5246;DHT22;54412;51.206;6.888;2023-03-01T01:43:29;2.40;99.90
5246;DHT22;54412;51.206;6.888;2023-03-01T01:49:05;2.30;99.90
5246;DHT22;54412;51.206;6.888;2023-03-01T01:51:39;2.30;99.90
5246;DHT22;54412;51.206;6.888;2023-03-01T01:54:15;2.40;99.90
5246;DHT22;54412;51.206;6.888;2023-03-01T01:56:48;2.30;99.90
5246;DHT22;54412;51.206;6.888;2023-03-01T01:59:18;2.50;99.90
5246;DHT22;54412;51.206;6.888;2023-03-01T02:01:43;2.40;99.90
5246;DHT22;54412;51.206;6.888;2023-03-01T02:04:09;2.50;99.90
5246;DHT22;54412;51.206;6.888;2023-03-01T02:06:45;2.50;99.90
5246;DHT22;54412;51.206;6.888;2023-03-01T02:09:19;2.50;99.90
5246;DHT22;54412;51.206;6.888;2023-03-01T02:11:47;2.60;99.90
5246;DHT22;54412;51.206;6.888;2023-03-01T02:14:15;2.60;99.90
5246;DHT22;54412;51.206;6.888;2023-03-01T02:16:41;2.60;99.90
5246;DHT22;54412;51.206;6.888;2023-03-01T02:19:09;2.50;99.90
5246;DHT22;54412;51.206;6.888;2023-03-01T02:22:02;2.50;99.90
5246;DHT22;54412;51.206;6.888;2023-03-01T02:30:22;2.20;99.90
5246;DHT22;54412;51.206;6.888;2023-03-01T02:32:51;2.00;99.90
5246;DHT22;54412;51.206;6.888;2023-03-01T02:35:19;2.10;99.90
5246;DHT22;54412;51.206;6.888;2023-03-01T02:37:46;2.00;99.90
5246;DHT22;54412;51.206;6.888;2023-03-01T02:40:18;2.20;99.90
5246;DHT22;54412;51.206;6.888;2023-03-01T02:42:53;2.30;99.90
5246;DHT22;54412;51.206;6.888;2023-03-01T02:45:21;2.40;99.90
5246;DHT22;54412;51.206;6.888;2023-03-01T02:47:48;2.30;99.90
5246;DHT22;54412;51.206;6.888;2023-03-01T02:50:25;2.30;99.90
5246;DHT22;54412;51.206;6.888;2023-03-01T02:53:01;2.40;99.90
5246;DHT22;54412;51.206;6.888;2023-03-01T02:55:36;2.40;99.90
5246;DHT22;54412;51.206;6.888;2023-03-01T02:58:03;2.50;99.90
5246;DHT22;54412;51.206;6.888;2023-03-01T03:00:40;2.50;99.90
5246;DHT22;54412;51.206;6.888;2023-03-01T03:03:13;2.50;99.90
5246;DHT22;54412;51.206;6.888;2023-03-01T03:05:40;2.30;99.90
5246;DHT22;54412;51.206;6.888;2023-03-01T03:08:06;2.20;99.90
5246;DHT22;54412;51.206;6.888;2023-03-01T03:10:37;2.20;99.90
5246;DHT22;54412;51.206;6.888;2023-03-01T03:13:07;2.20;99.90
5246;DHT22;54412;51.206;6.888;2023-03-01T03:15:35;2.20;99.90
5246;DHT22;54412;51.206;6.888;2023-03-01T03:18:05;2.20;99.90
5246;DHT22;54412;51.206;6.888;2023-03-01T03:20:34;2.10;99.90
5246;DHT22;54412;51.206;6.888;2023-03-01T03:23:00;2.20;99.90
5246;DHT22;54412;51.206;6.888;2023-03-01T03:25:27;2.10;99.90
5246;DHT22;54412;51.206;6.888;2023-03-01T03:27:55;2.00;99.90
5246;DHT22;54412;51.206;6.888;2023-03-01T03:30:27;2.00;99.90
5246;DHT22;54412;51.206;6.888;2023-03-01T03:32:55;2.00;99.90
5246;DHT22;54412;51.206;6.888;2023-03-01T03:35:26;2.00;99.90
5246;DHT22;54412;51.206;6.888;2023-03-01T03:37:57;1.90;99.90
5246;DHT22;54412;51.206;6.888;2023-03-01T03:40:30;1.80;99.90
5246;DHT22;54412;51.206;6.888;2023-03-01T03:42:58;1.80;99.90
5246;DHT22;54412;51.206;6.888;2023-03-01T03:45:24;1.80;99.90
5246;DHT22;54412;51.206;6.888;2023-03-01T03:47:50;1.80;99.90
5246;DHT22;54412;51.206;6.888;2023-03-01T03:50:17;1.70;99.90
5246;DHT22;54412;51.206;6.888;2023-03-01T03:52:43;1.70;99.90
5246;DHT22;54412;51.206;6.888;2023-03-01T03:55:11;1.70;99.90
5246;DHT22;54412;51.206;6.888;2023-03-01T03:57:38;1.70;99.90
5246;DHT22;54412;51.206;6.888;2023-03-01T04:00:09;1.70;99.90
5246;DHT22;54412;51.206;6.888;2023-03-01T04:02:44;1.70;99.90
5246;DHT22;54412;51.206;6.888;2023-03-01T04:05:14;1.70;99.90
5246;DHT22;54412;51.206;6.888;2023-03-01T04:07:42;1.70;99.90
5246;DHT22;54412;51.206;6.888;2023-03-01T04:10:14;1.70;99.90
5246;DHT22;54412;51.206;6.888;2023-03-01T04:12:41;1.70;99.90
5246;DHT22;54412;51.206;6.888;2023-03-01T04:15:10;1.70;99.90
5246;DHT22;54412;51.206;6.888;2023-03-01T04:17:43;1.80;99.90
5246;DHT22;54412;51.206;6.888;2023-03-01T04:20:16;1.90;99.90
5246;DHT22;54412;51.206;6.888;2023-03-01T04:22:50;1.80;99.90
5246;DHT22;54412;51.206;6.888;2023-03-01T04:25:18;1.80;99.90
5246;DHT22;54412;51.206;6.888;2023-03-01T04:27:44;1.90;99.90
5246;DHT22;54412;51.206;6.888;2023-03-01T04:30:10;1.90;99.90
5246;DHT22;54412;51.206;6.888;2023-03-01T04:32:36;1.80;99.90
5246;DHT22;54412;51.206;6.888;2023-03-01T04:35:02;1.80;99.90
5246;DHT22;54412;51.206;6.888;2023-03-01T04:37:28;1.90;99.90
5246;DHT22;54412;51.206;6.888;2023-03-01T04:39:54;1.90;99.90
5246;DHT22;54412;51.206;6.888;2023-03-01T04:42:20;2.00;99.90
5246;DHT22;54412;51.206;6.888;2023-03-01T04:44:46;2.00;99.90
5246;DHT22;54412;51.206;6.888;2023-03-01T04:47:12;2.00;99.90
5246;DHT22;54412;51.206;6.888;2023-03-01T04:49:38;1.90;99.90
5246;DHT22;54412;51.206;6.888;2023-03-01T04:52:04;1.90;99.90
5246;DHT22;54412;51.206;6.888;2023-03-01T04:54:31;1.90;99.90
5246;DHT22;54412;51.206;6.888;2023-03-01T04:56:58;1.80;99.90
5246;DHT22;54412;51.206;6.888;2023-03-01T04:59:25;1.80;99.90
5246;DHT22;54412;51.206;6.888;2023-03-01T05:01:55;1.90;99.90
5246;DHT22;54412;51.206;6.888;2023-03-01T05:04:22;1.70;99.90
5246;DHT22;54412;51.206;6.888;2023-03-01T05:06:49;1.70;99.90
5246;DHT22;54412;51.206;6.888;2023-03-01T05:09:15;1.80;99.90
5246;DHT22;54412;51.206;6.888;2023-03-01T05:11:41;1.70;99.90
5246;DHT22;54412;51.206;6.888;2023-03-01T05:14:07;1.70;99.90
5246;DHT22;54412;51.206;6.888;2023-03-01T05:16:35;1.70;99.90
5246;DHT22;54412;51.206;6.888;2023-03-01T05:19:02;1.70;99.90
5246;DHT22;54412;51.206;6.888;2023-03-01T05:21:38;1.80;99.90
5246;DHT22;54412;51.206;6.888;2023-03-01T05:24:24;1.70;99.90
5246;DHT22;54412;51.206;6.888;2023-03-01T05:26:50;1.60;99.90
5246;DHT22;54412;51.206;6.888;2023-03-01T05:29:22;1.50;99.90
5246;DHT22;54412;51.206;6.888;2023-03-01T05:31:54;1.70;99.90
5246;DHT22;54412;51.206;6.888;2023-03-01T05:34:25;1.70;99.90
5246;DHT22;54412;51.206;6.888;2023-03-01T05:36:52;1.60;99.90
5246;DHT22;54412;51.206;6.888;2023-03-01T05:39:24;1.70;99.90
5246;DHT22;54412;51.206;6.888;2023-03-01T05:41:59;1.80;99.90
5246;DHT22;54412;51.206;6.888;2023-03-01T05:44:27;1.80;99.90
5246;DHT22;54412;51.206;6.888;2023-03-01T05:46:54;1.80;99.90
5246;DHT22;54412;51.206;6.888;2023-03-01T05:49:20;1.80;99.90
5246;DHT22;54412;51.206;6.888;2023-03-01T05:51:50;1.70;99.90
5246;DHT22;54412;51.206;6.888;2023-03-01T05:54:18;1.70;99.90
5246;DHT22;54412;51.206;6.888;2023-03-01T05:56:45;1.70;99.90
5246;DHT22;54412;51.206;6.888;2023-03-01T05:59:11;1.70;99.90
5246;DHT22;54412;51.206;6.888;2023-03-01T06:01:37;1.60;99.90
5246;DHT22;54412;51.206;6.888;2023-03-01T06:04:03;1.60;99.90
5246;DHT22;54412;51.206;6.888;2023-03-01T06:06:33;1.60;99.90
5246;DHT22;54412;51.206;6.888;2023-03-01T06:08:59;1.60;99.90
5246;DHT22;54412;51.206;6.888;2023-03-01T06:11:25;1.70;99.90
5246;DHT22;54412;51.206;6.888;2023-03-01T06:13:51;1.60;99.90
5246;DHT22;54412;51.206;6.888;2023-03-01T06:16:16;1.60;99.90
5246;DHT22;54412;51.206;6.888;2023-03-01T06:18:42;1.50;99.90
5246;DHT22;54412;51.206;6.888;2023-03-01T06:21:08;1.60;99.90
5246;DHT22;54412;51.206;6.888;2023-03-01T06:23:34;1.60;99.90
5246;DHT22;54412;51.206;6.888;2023-03-01T06:26:04;1.60;99.90
5246;DHT22;54412;51.206;6.888;2023-03-01T06:28:30;1.60;99.90
5246;DHT22;54412;51.206;6.888;2023-03-01T06:30:56;1.70;99.90
5246;DHT22;54412;51.206;6.888;2023-03-01T06:33:22;1.80;99.90
5246;DHT22;54412;51.206;6.888;2023-03-01T06:35:50;1.80;99.90
5246;DHT22;54412;51.206;6.888;2023-03-01T06:38:16;1.90;99.90
5246;DHT22;54412;51.206;6.888;2023-03-01T06:40:44;1.80;99.90
5246;DHT22;54412;51.206;6.888;2023-03-01T06:43:10;1.80;99.90
5246;DHT22;54412;51.206;6.888;2023-03-01T06:45:37;1.90;99.90
5246;DHT22;54412;51.206;6.888;2023-03-01T06:48:06;2.10;99.90
5246;DHT22;54412;51.206;6.888;2023-03-01T06:50:33;2.20;99.90
5246;DHT22;54412;51.206;6.888;2023-03-01T06:53:00;2.30;99.90
5246;DHT22;54412;51.206;6.888;2023-03-01T06:55:26;2.30;99.90
5246;DHT22;54412;51.206;6.888;2023-03-01T06:57:59;2.20;99.90
5246;DHT22;54412;51.206;6.888;2023-03-01T07:00:28;2.10;99.90
5246;DHT22;54412;51.206;6.888;2023-03-01T07:02:54;2.10;99.90
5246;DHT22;54412;51.206;6.888;2023-03-01T07:05:20;2.10;99.90
5246;DHT22;54412;51.206;6.888;2023-03-01T07:07:46;2.20;99.90
5246;DHT22;54412;51.206;6.888;2023-03-01T07:10:12;2.20;99.90
5246;DHT22;54412;51.206;6.888;2023-03-01T07:12:38;2.10;99.90
5246;DHT22;54412;51.206;6.888;2023-03-01T07:15:04;2.10;99.90
5246;DHT22;54412;51.206;6.888;2023-03-01T07:17:30;2.10;99.90
5246;DHT22;54412;51.206;6.888;2023-03-01T07:19:56;2.20;99.90
5246;DHT22;54412;51.206;6.888;2023-03-01T07:22:22;2.30;99.90
5246;DHT22;54412;51.206;6.888;2023-03-01T07:24:48;2.30;99.90
5246;DHT22;54412;51.206;6.888;2023-03-01T07:27:13;2.30;99.90
5246;DHT22;54412;51.206;6.888;2023-03-01T07:29:39;2.30;99.90
5246;DHT22;54412;51.206;6.888;2023-03-01T07:32:05;2.20;99.90
5246;DHT22;54412;51.206;6.888;2023-03-01T07:34:31;2.30;99.90
5246;DHT22;54412;51.206;6.888;2023-03-01T07:36:57;2.30;99.90
5246;DHT22;54412;51.206;6.888;2023-03-01T07:39:24;2.40;99.90
5246;DHT22;54412;51.206;6.888;2023-03-01T07:41:50;2.60;99.90
5246;DHT22;54412;51.206;6.888;2023-03-01T07:44:16;2.70;99.90
5246;DHT22;54412;51.206;6.888;2023-03-01T07:46:42;2.80;99.90
5246;DHT22;54412;51.206;6.888;2023-03-01T07:49:09;3.00;99.90
5246;DHT22;54412;51.206;6.888;2023-03-01T07:51:35;2.90;99.90
5246;DHT22;54412;51.206;6.888;2023-03-01T07:54:01;3.10;99.90
5246;DHT22;54412;51.206;6.888;2023-03-01T07:56:26;3.30;99.90
5246;DHT22;54412;51.206;6.888;2023-03-01T07:58:52;3.40;99.90
5246;DHT22;54412;51.206;6.888;2023-03-01T08:01:20;3.60;99.90
5246;DHT22;54412;51.206;6.888;2023-03-01T08:03:46;3.70;99.90
5246;DHT22;54412;51.206;6.888;2023-03-01T08:06:14;3.80;99.90
5246;DHT22;54412;51.206;6.888;2023-03-01T08:08:41;4.00;99.90
5246;DHT22;54412;51.206;6.888;2023-03-01T08:11:09;4.10;99.90
5246;DHT22;54412;51.206;6.888;2023-03-01T08:13:36;4.30;99.90
5246;DHT22;54412;51.206;6.888;2023-03-01T08:16:07;4.40;99.90
5246;DHT22;54412;51.206;6.888;2023-03-01T08:18:37;4.70;99.90
5246;DHT22;54412;51.206;6.888;2023-03-01T08:21:04;4.90;99.90
5246;DHT22;54412;51.206;6.888;2023-03-01T08:23:35;5.00;99.90
5246;DHT22;54412;51.206;6.888;2023-03-01T08:26:10;5.20;99.90
5246;DHT22;54412;51.206;6.888;2023-03-01T08:28:43;5.50;99.90
5246;DHT22;54412;51.206;6.888;2023-03-01T08:31:24;5.50;99.90
5246;DHT22;54412;51.206;6.888;2023-03-01T08:33:57;5.70;99.90
5246;DHT22;54412;51.206;6.888;2023-03-01T08:36:30;5.90;99.90
5246;DHT22;54412;51.206;6.888;2023-03-01T08:39:01;6.00;99.90
5246;DHT22;54412;51.206;6.888;2023-03-01T08:41:27;6.10;99.90
5246;DHT22;54412;51.206;6.888;2023-03-01T08:43:53;6.10;99.90
5246;DHT22;54412;51.206;6.888;2023-03-01T08:46:24;6.30;99.90
5246;DHT22;54412;51.206;6.888;2023-03-01T08:48:51;6.50;99.90
5246;DHT22;54412;51.206;6.888;2023-03-01T08:51:18;6.80;99.90
5246;DHT22;54412;51.206;6.888;2023-03-01T08:53:45;7.30;99.90
5246;DHT22;54412;51.206;6.888;2023-03-01T08:56:12;7.40;99.90
5246;DHT22;54412;51.206;6.888;2023-03-01T08:58:39;7.70;99.90
5246;DHT22;54412;51.206;6.888;2023-03-01T09:01:13;8.10;99.90
5246;DHT22;54412;51.206;6.888;2023-03-01T09:03:40;8.20;99.90
5246;DHT22;54412;51.206;6.888;2023-03-01T09:06:07;8.20;99.90
5246;DHT22;54412;51.206;6.888;2023-03-01T09:08:43;8.40;99.90
5246;DHT22;54412;51.206;6.888;2023-03-01T09:11:13;8.10;99.90
5246;DHT22;54412;51.206;6.888;2023-03-01T09:13:41;8.00;99.90
5246;DHT22;54412;51.206;6.888;2023-03-01T09:16:07;8.00;99.90
5246;DHT22;54412;51.206;6.888;2023-03-01T09:18:34;8.30;99.90
5246;DHT22;54412;51.206;6.888;2023-03-01T09:21:05;8.40;99.60
5246;DHT22;54412;51.206;6.888;2023-03-01T09:23:45;8.80;99.20
5246;DHT22;54412;51.206;6.888;2023-03-01T09:26:17;9.20;98.40
5246;DHT22;54412;51.206;6.888;2023-03-01T09:28:46;9.50;99.90
5246;DHT22;54412;51.206;6.888;2023-03-01T09:31:14;9.60;99.90
5246;DHT22;54412;51.206;6.888;2023-03-01T09:33:42;9.60;99.10
5246;DHT22;54412;51.206;6.888;2023-03-01T09:36:12;8.80;99.90
5246;DHT22;54412;51.206;6.888;2023-03-01T09:38:39;9.50;99.90
5246;DHT22;54412;51.206;6.888;2023-03-01T09:44:29;9.80;99.90
5246;DHT22;54412;51.206;6.888;2023-03-01T09:46:57;10.30;99.90
5246;DHT22;54412;51.206;6.888;2023-03-01T09:49:27;10.60;97.70
5246;DHT22;54412;51.206;6.888;2023-03-01T09:52:09;10.30;96.40
5246;DHT22;54412;51.206;6.888;2023-03-01T09:54:47;10.30;93.20
5246;DHT22;54412;51.206;6.888;2023-03-01T09:57:54;10.20;91.50
5246;DHT22;54412;51.206;6.888;2023-03-01T10:07:10;10.00;90.60
5246;DHT22;54412;51.206;6.888;2023-03-01T10:09:47;10.00;89.10
5246;DHT22;54412;51.206;6.888;2023-03-01T10:12:35;9.90;88.10
5246;DHT22;54412;51.206;6.888;2023-03-01T10:18:22;9.90;89.70
5246;DHT22;54412;51.206;6.888;2023-03-01T10:21:09;10.30;90.10
5246;DHT22;54412;51.206;6.888;2023-03-01T10:23:40;9.90;88.80
5246;DHT22;54412;51.206;6.888;2023-03-01T10:29:12;9.90;88.40
5246;DHT22;54412;51.206;6.888;2023-03-01T10:31:46;10.20;88.00
5246;DHT22;54412;51.206;6.888;2023-03-01T10:34:20;10.60;87.90
5246;DHT22;54412;51.206;6.888;2023-03-01T10:36:55;11.00;85.90
5246;DHT22;54412;51.206;6.888;2023-03-01T10:39:25;10.40;82.30
5246;DHT22;54412;51.206;6.888;2023-03-01T10:42:05;10.40;84.10
5246;DHT22;54412;51.206;6.888;2023-03-01T10:44:52;10.60;84.80
5246;DHT22;54412;51.206;6.888;2023-03-01T10:47:20;10.70;83.10
5246;DHT22;54412;51.206;6.888;2023-03-01T10:49:59;10.10;82.20
5246;DHT22;54412;51.206;6.888;2023-03-01T10:52:37;10.30;85.70
5246;DHT22;54412;51.206;6.888;2023-03-01T10:55:26;10.80;86.30
5246;DHT22;54412;51.206;6.888;2023-03-01T11:03:31;11.40;82.50
5246;DHT22;54412;51.206;6.888;2023-03-01T11:06:08;11.70;81.20
5246;DHT22;54412;51.206;6.888;2023-03-01T11:08:48;11.70;80.60
5246;DHT22;54412;51.206;6.888;2023-03-01T11:14:17;10.90;81.80
5246;DHT22;54412;51.206;6.888;2023-03-01T11:19:15;11.50;80.50
5246;DHT22;54412;51.206;6.888;2023-03-01T11:21:53;11.70;80.30
5246;DHT22;54412;51.206;6.888;2023-03-01T11:24:45;11.70;79.10
5246;DHT22;54412;51.206;6.888;2023-03-01T11:30:01;12.00;80.00
5246;DHT22;54412;51.206;6.888;2023-03-01T11:32:47;12.00;79.70
5246;DHT22;54412;51.206;6.888;2023-03-01T11:35:25;12.40;79.30
5246;DHT22;54412;51.206;6.888;2023-03-01T11:40:44;12.70;75.10
5246;DHT22;54412;51.206;6.888;2023-03-01T11:43:33;12.90;77.10
5246;DHT22;54412;51.206;6.888;2023-03-01T11:46:21;12.80;73.60
5246;DHT22;54412;51.206;6.888;2023-03-01T12:07:01;12.20;76.60
5246;DHT22;54412;51.206;6.888;2023-03-01T12:09:53;12.70;75.10
5246;DHT22;54412;51.206;6.888;2023-03-01T12:16:00;13.10;73.50
5246;DHT22;54412;51.206;6.888;2023-03-01T12:19:23;12.90;74.30
5246;DHT22;54412;51.206;6.888;2023-03-01T12:39:38;13.00;71.50
5246;DHT22;54412;51.206;6.888;2023-03-01T12:48:51;13.50;71.30
5246;DHT22;54412;51.206;6.888;2023-03-01T12:51:24;13.60;70.20
5246;DHT22;54412;51.206;6.888;2023-03-01T12:53:55;13.20;69.70
5246;DHT22;54412;51.206;6.888;2023-03-01T12:56:30;13.00;69.70
5246;DHT22;54412;51.206;6.888;2023-03-01T13:07:28;13.60;67.50
5246;DHT22;54412;51.206;6.888;2023-03-01T13:17:49;13.20;71.70
5246;DHT22;54412;51.206;6.888;2023-03-01T13:20:18;13.50;72.10
5246;DHT22;54412;51.206;6.888;2023-03-01T13:22:47;13.10;70.50
5246;DHT22;54412;51.206;6.888;2023-03-01T13:25:26;13.30;70.90
5246;DHT22;54412;51.206;6.888;2023-03-01T13:33:52;13.30;69.80
5246;DHT22;54412;51.206;6.888;2023-03-01T13:39:13;12.20;70.40
5246;DHT22;54412;51.206;6.888;2023-03-01T13:42:32;12.10;72.20
5246;DHT22;54412;51.206;6.888;2023-03-01T13:44:59;12.40;72.70
5246;DHT22;54412;51.206;6.888;2023-03-01T13:47:26;13.20;72.00
5246;DHT22;54412;51.206;6.888;2023-03-01T13:50:01;13.00;70.80
5246;DHT22;54412;51.206;6.888;2023-03-01T13:52:37;12.40;71.50
5246;DHT22;54412;51.206;6.888;2023-03-01T13:57:41;13.00;70.80
5246;DHT22;54412;51.206;6.888;2023-03-01T14:00:47;13.00;70.80
5246;DHT22;54412;51.206;6.888;2023-03-01T14:03:19;12.80;70.80
5246;DHT22;54412;51.206;6.888;2023-03-01T14:06:06;12.70;72.40
5246;DHT22;54412;51.206;6.888;2023-03-01T14:08:36;13.00;73.20
5246;DHT22;54412;51.206;6.888;2023-03-01T14:11:26;13.40;73.60
5246;DHT22;54412;51.206;6.888;2023-03-01T14:17:44;13.00;71.00
5246;DHT22;54412;51.206;6.888;2023-03-01T14:20:30;12.70;72.10
5246;DHT22;54412;51.206;6.888;2023-03-01T14:23:02;12.80;72.80
5246;DHT22;54412;51.206;6.888;2023-03-01T14:25:37;12.50;72.50
5246;DHT22;54412;51.206;6.888;2023-03-01T14:28:17;12.60;72.80
5246;DHT22;54412;51.206;6.888;2023-03-01T14:33:32;12.70;72.70
5246;DHT22;54412;51.206;6.888;2023-03-01T14:36:14;12.70;72.30
5246;DHT22;54412;51.206;6.888;2023-03-01T14:38:44;12.60;72.00
5246;DHT22;54412;51.206;6.888;2023-03-01T14:41:20;11.80;71.70
5246;DHT22;54412;51.206;6.888;2023-03-01T14:43:55;11.50;73.20
5246;DHT22;54412;51.206;6.888;2023-03-01T14:46:38;11.60;74.10
5246;DHT22;54412;51.206;6.888;2023-03-01T14:49:13;11.70;74.90
5246;DHT22;54412;51.206;6.888;2023-03-01T14:51:46;12.00;74.10
5246;DHT22;54412;51.206;6.888;2023-03-01T14:54:24;12.10;73.80
5246;DHT22;54412;51.206;6.888;2023-03-01T14:56:57;11.70;72.30
5246;DHT22;54412;51.206;6.888;2023-03-01T14:59:25;11.40;73.70
5246;DHT22;54412;51.206;6.888;2023-03-01T15:01:54;11.50;73.20
5246;DHT22;54412;51.206;6.888;2023-03-01T15:04:24;11.10;73.80
5246;DHT22;54412;51.206;6.888;2023-03-01T15:06:53;10.90;73.90
5246;DHT22;54412;51.206;6.888;2023-03-01T15:09:21;10.70;74.50
5246;DHT22;54412;51.206;6.888;2023-03-01T15:11:49;10.20;74.80
5246;DHT22;54412;51.206;6.888;2023-03-01T15:14:43;10.50;76.00
5246;DHT22;54412;51.206;6.888;2023-03-01T15:20:04;10.60;76.00
5246;DHT22;54412;51.206;6.888;2023-03-01T15:22:47;10.70;75.70
5246;DHT22;54412;51.206;6.888;2023-03-01T15:25:18;10.80;76.80
5246;DHT22;54412;51.206;6.888;2023-03-01T15:27:46;11.10;76.20
5246;DHT22;54412;51.206;6.888;2023-03-01T15:30:22;10.80;75.70
5246;DHT22;54412;51.206;6.888;2023-03-01T15:35:47;10.30;76.20
5246;DHT22;54412;51.206;6.888;2023-03-01T15:38:33;10.20;76.60
5246;DHT22;54412;51.206;6.888;2023-03-01T15:41:36;10.10;77.90
5246;DHT22;54412;51.206;6.888;2023-03-01T15:44:34;10.40;79.10
5246;DHT22;54412;51.206;6.888;2023-03-01T15:47:28;10.20;77.80
5246;DHT22;54412;51.206;6.888;2023-03-01T15:49:55;10.00;77.60
5246;DHT22;54412;51.206;6.888;2023-03-01T15:52:33;10.20;79.00
5246;DHT22;54412;51.206;6.888;2023-03-01T15:55:04;10.00;78.30
5246;DHT22;54412;51.206;6.888;2023-03-01T15:57:31;9.80;79.10
5246;DHT22;54412;51.206;6.888;2023-03-01T15:59:57;9.70;80.10
5246;DHT22;54412;51.206;6.888;2023-03-01T16:02:23;9.70;80.80
5246;DHT22;54412;51.206;6.888;2023-03-01T16:04:50;9.60;79.20
5246;DHT22;54412;51.206;6.888;2023-03-01T16:07:16;9.50;79.80
5246;DHT22;54412;51.206;6.888;2023-03-01T16:09:42;9.30;79.10
5246;DHT22;54412;51.206;6.888;2023-03-01T16:12:15;9.40;79.50
5246;DHT22;54412;51.206;6.888;2023-03-01T16:14:42;9.40;78.90
5246;DHT22;54412;51.206;6.888;2023-03-01T16:17:08;9.30;79.20
5246;DHT22;54412;51.206;6.888;2023-03-01T16:19:36;9.40;79.50
5246;DHT22;54412;51.206;6.888;2023-03-01T16:22:03;9.50;80.20
5246;DHT22;54412;51.206;6.888;2023-03-01T16:24:29;9.40;80.90
5246;DHT22;54412;51.206;6.888;2023-03-01T16:26:55;9.30;81.10
5246;DHT22;54412;51.206;6.888;2023-03-01T16:29:21;9.40;81.40
5246;DHT22;54412;51.206;6.888;2023-03-01T16:31:46;9.10;80.20
5246;DHT22;54412;51.206;6.888;2023-03-01T16:34:13;9.10;85.30
5246;DHT22;54412;51.206;6.888;2023-03-01T16:36:38;9.00;80.90
5246;DHT22;54412;51.206;6.888;2023-03-01T16:39:04;8.90;80.80
5246;DHT22;54412;51.206;6.888;2023-03-01T16:41:31;8.80;81.20
5246;DHT22;54412;51.206;6.888;2023-03-01T16:43:57;8.70;81.00
5246;DHT22;54412;51.206;6.888;2023-03-01T16:46:25;8.70;82.00
5246;DHT22;54412;51.206;6.888;2023-03-01T16:48:53;8.80;82.20
5246;DHT22;54412;51.206;6.888;2023-03-01T16:51:20;8.70;83.40
5246;DHT22;54412;51.206;6.888;2023-03-01T16:53:47;8.50;83.80
5246;DHT22;54412;51.206;6.888;2023-03-01T16:56:14;8.50;83.80
5246;DHT22;54412;51.206;6.888;2023-03-01T16:58:41;8.50;83.40
5246;DHT22;54412;51.206;6.888;2023-03-01T17:01:13;8.40;83.80
5246;DHT22;54412;51.206;6.888;2023-03-01T17:03:42;8.20;83.80
5246;DHT22;54412;51.206;6.888;2023-03-01T17:06:13;8.20;84.20
5246;DHT22;54412;51.206;6.888;2023-03-01T17:08:41;8.20;85.80
5246;DHT22;54412;51.206;6.888;2023-03-01T17:11:13;8.20;85.80
5246;DHT22;54412;51.206;6.888;2023-03-01T17:13:44;8.10;85.80
5246;DHT22;54412;51.206;6.888;2023-03-01T17:16:12;8.00;86.20
5246;DHT22;54412;51.206;6.888;2023-03-01T17:18:41;8.00;86.60
5246;DHT22;54412;51.206;6.888;2023-03-01T17:21:09;7.90;86.70
5246;DHT22;54412;51.206;6.888;2023-03-01T17:23:37;7.90;87.00
5246;DHT22;54412;51.206;6.888;2023-03-01T17:26:04;7.90;87.50
5246;DHT22;54412;51.206;6.888;2023-03-01T17:28:32;7.70;88.00
5246;DHT22;54412;51.206;6.888;2023-03-01T17:31:01;7.70;89.20
5246;DHT22;54412;51.206;6.888;2023-03-01T17:33:29;7.80;89.60
5246;DHT22;54412;51.206;6.888;2023-03-01T17:35:56;7.90;89.90
5246;DHT22;54412;51.206;6.888;2023-03-01T17:38:23;7.70;89.50
5246;DHT22;54412;51.206;6.888;2023-03-01T17:40:48;7.70;90.00
5246;DHT22;54412;51.206;6.888;2023-03-01T17:43:15;7.70;90.10
5246;DHT22;54412;51.206;6.888;2023-03-01T17:45:43;7.70;90.40
5246;DHT22;54412;51.206;6.888;2023-03-01T17:48:13;7.60;90.20
5246;DHT22;54412;51.206;6.888;2023-03-01T17:50:40;7.60;90.00
5246;DHT22;54412;51.206;6.888;2023-03-01T17:53:06;7.50;90.30
5246;DHT22;54412;51.206;6.888;2023-03-01T17:55:38;7.40;90.60
5246;DHT22;54412;51.206;6.888;2023-03-01T17:58:06;7.50;90.50
5246;DHT22;54412;51.206;6.888;2023-03-01T18:00:34;7.40;90.60
5246;DHT22;54412;51.206;6.888;2023-03-01T18:03:01;7.40;91.10
5246;DHT22;54412;51.206;6.888;2023-03-01T18:05:31;7.50;91.10
5246;DHT22;54412;51.206;6.888;2023-03-01T18:07:58;7.50;90.80
5246;DHT22;54412;51.206;6.888;2023-03-01T18:10:24;7.50;90.90
5246;DHT22;54412;51.206;6.888;2023-03-01T18:12:51;7.40;90.90
5246;DHT22;54412;51.206;6.888;2023-03-01T18:15:17;7.30;91.20
5246;DHT22;54412;51.206;6.888;2023-03-01T18:17:43;7.20;91.50
5246;DHT22;54412;51.206;6.888;2023-03-01T18:20:10;7.20;91.80
5246;DHT22;54412;51.206;6.888;2023-03-01T18:22:38;7.20;91.80
5246;DHT22;54412;51.206;6.888;2023-03-01T18:25:04;7.40;91.60
5246;DHT22;54412;51.206;6.888;2023-03-01T18:27:30;7.30;91.70
5246;DHT22;54412;51.206;6.888;2023-03-01T18:29:56;7.30;91.90